Time;durP1;ratioP1;P1;durP2;ratioP2;P2;SDS_P1;SDS_P2;PMS_P1;PMS_P2;Temp;Humidity;BMP_temperature;BMP_pressure;BME280_temperature;BME280_humidity;BME280_pressure;Samples;Min_cycle;Max_cycle;Signal;HPM_P1;HPM_P2
2022/06/26 00:00:19;;;;;;;2.03;1.92;;;;;;;23.15;48.54;101118.13;5053382;28;20091;-65
2022/06/26 00:02:46;;;;;;;1.90;1.80;;;;;;;23.16;48.41;101122.50;5053373;28;20052;-66
2022/06/26 00:05:11;;;;;;;2.08;1.98;;;;;;;23.14;48.67;101119.22;5053222;28;20024;-64
2022/06/26 00:07:37;;;;;;;2.28;2.17;;;;;;;23.14;48.58;101119.22;5053248;28;20370;-64
2022/06/26 00:10:03;;;;;;;2.20;2.10;;;;;;;23.14;48.41;101130.09;5053152;28;20412;-64
2022/06/26 00:12:28;;;;;;;2.30;2.10;;;;;;;23.14;48.26;101130.09;5053144;28;20021;-65
2022/06/26 00:14:54;;;;;;;2.20;2.10;;;;;;;23.14;48.35;101132.84;5053111;28;20036;-65
2022/06/26 00:17:19;;;;;;;2.42;2.25;;;;;;;23.13;48.23;101121.13;5052909;28;20521;-65
2022/06/26 00:19:45;;;;;;;2.30;2.10;;;;;;;23.14;48.22;101119.22;5052833;28;20025;-65
2022/06/26 00:22:10;;;;;;;2.10;2.00;;;;;;;23.14;48.11;101119.22;5053128;28;20044;-65
2022/06/26 00:24:36;;;;;;;1.90;1.80;;;;;;;23.11;48.35;101125.16;5051639;28;20099;-65
2022/06/26 00:27:03;;;;;;;2.15;1.95;;;;;;;23.13;48.25;101123.00;5066731;28;20324;-65
2022/06/26 00:29:31;;;;;;;2.40;2.20;;;;;;;23.11;48.02;101125.16;5072944;28;20109;-65
2022/06/26 00:31:57;;;;;;;2.17;2.08;;;;;;;23.11;48.19;101123.28;5072734;28;20463;-65
2022/06/26 00:34:22;;;;;;;1.95;1.85;;;;;;;23.12;48.12;101124.09;5073093;28;20032;-65
2022/06/26 00:36:48;;;;;;;2.10;2.00;;;;;;;23.11;48.26;101126.00;5072676;28;20025;-65
2022/06/26 00:39:13;;;;;;;2.05;1.95;;;;;;;23.11;48.10;101131.47;5073094;28;20048;-65
2022/06/26 00:41:39;;;;;;;2.03;1.92;;;;;;;23.11;47.96;101136.06;5072997;28;20455;-65
2022/06/26 00:44:17;;;;;;;2.10;2.00;;;;;;;23.10;48.48;101134.44;5073147;28;20409;-65
2022/06/26 00:46:43;;;;;;;2.15;2.05;;;;;;;23.10;48.08;101131.72;5077012;28;20028;-65
2022/06/26 00:49:11;;;;;;;2.28;2.17;;;;;;;23.10;47.70;101128.97;5076784;28;20086;-65
2022/06/26 00:51:39;;;;;;;1.95;1.85;;;;;;;23.09;47.86;101132.78;5076464;28;20032;-65
2022/06/26 00:54:04;;;;;;;2.10;2.00;;;;;;;23.08;47.89;101131.09;5076452;28;20032;-65
2022/06/26 00:56:29;;;;;;;2.00;1.90;;;;;;;23.09;47.67;101130.03;5075110;28;20028;-65
2022/06/26 00:58:55;;;;;;;2.15;2.05;;;;;;;23.10;47.79;101128.97;5076593;28;20035;-65
2022/06/26 01:01:20;;;;;;;2.30;2.10;;;;;;;23.09;47.64;101130.03;5076289;28;20036;-65
2022/06/26 01:03:46;;;;;;;2.63;2.45;;;;;;;23.09;47.39;101132.78;5076156;28;20028;-65
2022/06/26 01:06:11;;;;;;;2.22;2.13;;;;;;;23.08;47.57;101131.09;5076148;28;20024;-65
2022/06/26 01:08:37;;;;;;;2.15;2.05;;;;;;;23.08;47.67;101133.84;5075116;28;20024;-66
2022/06/26 01:11:17;;;;;;;2.10;2.00;;;;;;;23.08;47.58;101131.09;5074848;28;20031;-65
2022/06/26 01:13:45;;;;;;;2.15;2.05;;;;;;;23.08;47.30;101133.84;5076280;28;20106;-65
2022/06/26 01:16:12;;;;;;;2.58;2.38;;;;;;;23.05;47.71;101127.81;5074861;28;20132;-65
2022/06/26 01:18:38;;;;;;;2.33;2.20;;;;;;;23.06;47.33;101134.94;5076246;28;20107;-65
2022/06/26 01:21:03;;;;;;;2.00;1.90;;;;;;;23.06;47.17;101129.47;5075058;28;20025;-65
2022/06/26 01:23:29;;;;;;;2.10;2.00;;;;;;;23.06;47.68;101140.38;5075904;28;20032;-65
2022/06/26 01:25:54;;;;;;;2.55;2.35;;;;;;;23.05;47.40;101141.44;5073038;28;20024;-65
2022/06/26 01:28:20;;;;;;;2.67;2.47;;;;;;;23.06;47.50;101136.84;5056416;28;20075;-65
2022/06/26 01:30:45;;;;;;;2.53;2.35;;;;;;;23.06;47.41;101145.84;5056228;28;20036;-65
2022/06/26 01:33:11;;;;;;;2.50;2.30;;;;;;;23.06;47.27;101145.84;5055987;28;20040;-65
2022/06/26 01:35:36;;;;;;;2.60;2.40;;;;;;;23.05;47.39;101144.19;5055968;28;20034;-64
2022/06/26 01:38:28;;;;;;;2.50;2.30;;;;;;;23.09;47.58;101154.59;5055893;28;20422;-64
2022/06/26 01:40:54;;;;;;;2.60;2.40;;;;;;;23.05;47.28;101155.06;5051641;28;20530;-64
2022/06/26 01:43:21;;;;;;;2.42;2.33;;;;;;;23.05;47.09;101152.34;5056422;28;20099;-64
2022/06/26 01:45:49;;;;;;;2.15;2.00;;;;;;;23.04;47.01;101149.84;5055492;28;20131;-65
2022/06/26 01:48:15;;;;;;;2.45;2.30;;;;;;;23.03;46.91;101151.75;5055366;28;20033;-65
2022/06/26 01:50:40;;;;;;;2.05;1.95;;;;;;;23.05;46.93;101154.22;5055346;28;20083;-65
2022/06/26 01:53:06;;;;;;;2.20;2.10;;;;;;;23.05;47.04;101154.22;5055616;28;20048;-66
2022/06/26 01:55:31;;;;;;;2.30;2.20;;;;;;;23.03;47.11;101151.75;5055209;28;20021;-65
2022/06/26 01:58:01;;;;;;;2.58;2.38;;;;;;;23.03;47.12;101154.47;5055435;28;20017;-65
2022/06/26 02:00:27;;;;;;;2.50;2.30;;;;;;;23.03;47.08;101149.03;5055502;28;20037;-65
2022/06/26 02:02:53;;;;;;;2.40;2.25;;;;;;;23.02;47.12;101152.81;5055365;28;20028;-65
2022/06/26 02:05:18;;;;;;;2.35;2.25;;;;;;;23.03;47.01;101149.03;5055368;28;20463;-65
2022/06/26 02:07:44;;;;;;;2.05;1.95;;;;;;;23.02;47.02;101150.09;5053994;28;20025;-65
2022/06/26 02:15:37;;;;;;;2.50;2.30;;;;;;;23.05;47.14;101154.22;5055013;28;20043;-65
2022/06/26 02:18:02;;;;;;;2.70;2.50;;;;;;;23.02;46.94;101150.09;5055198;28;20344;-65
2022/06/26 02:20:28;;;;;;;2.20;2.10;;;;;;;23.03;47.09;101165.38;5054815;28;20029;-65
2022/06/26 02:22:53;;;;;;;2.30;2.20;;;;;;;23.02;46.82;101162.91;5054688;28;20033;-66
2022/06/26 02:25:19;;;;;;;2.40;2.20;;;;;;;23.03;47.30;101162.66;5054551;28;20045;-66
2022/06/26 02:27:45;;;;;;;2.20;2.10;;;;;;;23.04;46.93;101158.88;5071550;28;20025;-66
2022/06/26 02:30:11;;;;;;;2.00;1.90;;;;;;;23.03;47.02;101168.13;5074732;28;20165;-66
2022/06/26 02:32:36;;;;;;;2.33;2.22;;;;;;;23.00;47.14;101165.06;5075613;28;20029;-66
2022/06/26 02:35:02;;;;;;;2.35;2.17;;;;;;;23.02;46.96;101160.19;5074902;28;20473;-65
2022/06/26 02:37:27;;;;;;;2.50;2.30;;;;;;;23.01;47.03;101175.72;5074805;28;20488;-65
2022/06/26 02:39:53;;;;;;;2.20;2.10;;;;;;;23.02;47.06;101169.19;5074793;28;20520;-65
2022/06/26 02:42:18;;;;;;;2.60;2.40;;;;;;;23.02;47.03;101182.00;5074634;28;20430;-65
2022/06/26 02:44:44;;;;;;;2.28;2.17;;;;;;;23.01;47.21;101188.53;5074348;28;20024;-65
2022/06/26 02:47:09;;;;;;;2.30;2.10;;;;;;;23.01;47.28;101181.19;5074251;28;20027;-65
2022/06/26 02:49:34;;;;;;;2.70;2.50;;;;;;;23.02;47.23;101182.81;5074474;28;20025;-65
2022/06/26 02:52:00;;;;;;;2.22;2.13;;;;;;;23.00;47.18;101187.69;5074427;28;20459;-65
2022/06/26 02:54:25;;;;;;;2.42;2.33;;;;;;;23.01;47.51;101185.81;5074411;28;20032;-65
2022/06/26 02:56:51;;;;;;;3.38;2.38;;;;;;;23.01;47.30;101185.81;5074079;28;20016;-65
2022/06/26 02:59:16;;;;;;;2.10;2.00;;;;;;;23.01;47.46;101189.34;5074006;28;20024;-64
2022/06/26 03:01:42;;;;;;;2.40;2.20;;;;;;;23.01;47.50;101196.72;5074031;28;20021;-65
2022/06/26 03:04:07;;;;;;;2.58;2.38;;;;;;;23.02;47.45;101195.63;5073947;28;20024;-66
2022/06/26 03:06:33;;;;;;;2.70;2.50;;;;;;;23.01;47.63;101196.72;5073908;28;20016;-66
2022/06/26 03:08:58;;;;;;;2.30;2.20;;;;;;;23.02;47.57;101203.81;5073241;28;20032;-65
2022/06/26 03:11:24;;;;;;;2.22;2.13;;;;;;;23.02;47.47;101204.63;5073808;28;20392;-66
2022/06/26 03:13:49;;;;;;;2.38;2.25;;;;;;;23.03;47.50;101200.00;5074042;28;20090;-65
2022/06/26 03:16:15;;;;;;;2.25;2.15;;;;;;;23.02;47.86;101210.06;5073648;28;20021;-65
2022/06/26 03:18:40;;;;;;;2.38;2.28;;;;;;;23.03;47.61;101206.28;5073942;28;20081;-65
2022/06/26 03:21:05;;;;;;;2.30;2.20;;;;;;;23.03;47.83;101206.28;5073622;28;20028;-66
2022/06/26 03:26:15;;;;;;;2.10;2.00;;;;;;;23.03;47.69;101209.00;5070996;28;20039;-65
2022/06/26 03:28:40;;;;;;;2.00;1.90;;;;;;;23.02;47.78;101206.53;5053441;28;20048;-65
2022/06/26 03:31:06;;;;;;;2.10;2.00;;;;;;;23.02;47.99;101212.78;5053922;28;20032;-66
2022/06/26 03:33:31;;;;;;;2.10;2.00;;;;;;;23.03;48.01;101210.91;5053814;28;20494;-65
2022/06/26 03:35:58;;;;;;;2.10;2.00;;;;;;;23.02;48.09;101209.25;5053612;28;20447;-66
2022/06/26 03:38:23;;;;;;;2.33;2.22;;;;;;;23.02;48.14;101207.34;5052463;28;20055;-65
2022/06/26 03:40:49;;;;;;;2.60;2.40;;;;;;;23.03;48.27;101209.00;5053621;28;20418;-65
2022/06/26 03:43:14;;;;;;;2.55;2.35;;;;;;;23.02;48.06;101207.34;5053218;28;20411;-65
2022/06/26 03:45:40;;;;;;;2.70;2.50;;;;;;;23.02;48.15;101212.78;5053197;28;20017;-65
2022/06/26 03:48:05;;;;;;;2.22;2.13;;;;;;;23.03;48.19;101217.19;5053199;28;20032;-66
2022/06/26 03:50:31;;;;;;;2.28;2.17;;;;;;;23.02;48.38;101218.25;5053140;28;20028;-65
2022/06/26 03:52:56;;;;;;;2.40;2.30;;;;;;;23.02;48.58;101218.25;5053382;28;20096;-65
2022/06/26 03:55:22;;;;;;;2.60;2.40;;;;;;;23.03;48.72;101217.19;5053427;28;20474;-65
2022/06/26 03:57:47;;;;;;;2.20;2.10;;;;;;;23.03;48.50;101210.91;5052265;28;20406;-65
2022/06/26 04:00:14;;;;;;;1.98;1.88;;;;;;;23.02;48.61;101212.78;5053391;28;20029;-66
2022/06/26 04:02:40;;;;;;;2.13;2.03;;;;;;;23.03;48.45;101217.19;5052143;28;20421;-65
2022/06/26 04:05:06;;;;;;;2.35;2.25;;;;;;;23.02;48.76;101215.53;5052941;28;20021;-65
2022/06/26 04:07:32;;;;;;;2.60;2.40;;;;;;;23.03;48.60;101210.91;5054020;28;20040;-66
2022/06/26 04:09:57;;;;;;;2.63;2.42;;;;;;;23.03;48.90;101211.72;5053128;28;20375;-65
2022/06/26 04:12:22;;;;;;;2.33;2.20;;;;;;;23.04;48.90;101212.53;5053205;28;20417;-66
2022/06/26 04:14:48;;;;;;;2.50;2.30;;;;;;;23.04;48.82;101213.38;5053286;28;20418;-66
2022/06/26 04:17:17;;;;;;;2.30;2.20;;;;;;;23.02;48.62;101215.53;5053162;28;20021;-66
2022/06/26 04:19:42;;;;;;;2.60;2.40;;;;;;;23.02;48.89;101215.53;5054403;28;20120;-66
2022/06/26 04:22:07;;;;;;;2.35;2.20;;;;;;;23.05;49.12;101220.50;5057313;28;20471;-65
2022/06/26 04:24:33;;;;;;;3.00;2.80;;;;;;;23.04;49.03;101207.94;5057096;28;20099;-65
2022/06/26 04:26:58;;;;;;;2.35;2.22;;;;;;;23.03;49.09;101209.00;5064370;28;20016;-66
2022/06/26 04:29:24;;;;;;;2.30;2.10;;;;;;;23.04;49.03;101213.38;5077114;28;20451;-66
2022/06/26 04:31:49;;;;;;;2.33;2.20;;;;;;;23.05;48.89;101212.31;5077222;28;20033;-65
2022/06/26 04:34:15;;;;;;;2.28;2.17;;;;;;;23.05;49.04;101212.31;5076882;28;20024;-65
2022/06/26 04:36:40;;;;;;;2.17;2.08;;;;;;;23.04;49.15;101207.94;5077152;28;20029;-65
2022/06/26 04:39:06;;;;;;;2.42;2.22;;;;;;;23.06;49.12;101214.00;5077240;28;20435;-65
2022/06/26 04:41:31;;;;;;;2.35;2.25;;;;;;;23.06;49.23;101210.44;5075422;28;20020;-65
2022/06/26 04:43:57;;;;;;;2.30;2.17;;;;;;;23.06;49.29;101216.72;5076620;28;20070;-65
2022/06/26 04:46:22;;;;;;;2.30;2.20;;;;;;;23.06;49.23;101207.72;5076891;28;20021;-65
2022/06/26 04:48:48;;;;;;;2.60;2.40;;;;;;;23.05;49.79;101209.59;5076794;28;20024;-65
2022/06/26 04:51:13;;;;;;;2.60;2.42;;;;;;;23.06;49.25;101211.25;5076860;28;20028;-65
2022/06/26 04:53:39;;;;;;;2.60;2.40;;;;;;;23.06;49.79;101219.44;5076721;28;20024;-65
2022/06/26 04:56:04;;;;;;;2.33;2.20;;;;;;;23.06;49.79;101221.34;5076763;28;20032;-65
2022/06/26 04:58:30;;;;;;;2.53;2.33;;;;;;;23.06;49.93;101222.16;5076714;28;20025;-65
2022/06/26 05:00:55;;;;;;;2.58;2.38;;;;;;;23.05;50.08;101217.78;5076305;28;20038;-65
2022/06/26 05:03:21;;;;;;;2.50;2.30;;;;;;;23.06;50.01;101216.72;5076604;28;20074;-64
2022/06/26 05:05:46;;;;;;;2.60;2.40;;;;;;;23.08;50.58;101216.47;5076240;28;20099;-65
2022/06/26 05:08:13;;;;;;;2.40;2.20;;;;;;;23.06;50.38;101214.00;5076484;28;20017;-65
2022/06/26 05:10:38;;;;;;;2.58;2.38;;;;;;;23.08;50.59;101219.19;5076154;28;20424;-64
2022/06/26 05:13:04;;;;;;;2.30;2.20;;;;;;;23.09;50.66;101220.00;5076569;28;20032;-64
2022/06/26 05:15:29;;;;;;;2.38;2.28;;;;;;;23.08;50.86;101218.34;5076416;28;20028;-64
2022/06/26 05:17:55;;;;;;;2.50;2.33;;;;;;;23.09;51.21;101220.00;5076339;28;20031;-64
2022/06/26 05:20:20;;;;;;;2.60;2.40;;;;;;;23.08;51.19;101221.06;5076264;28;20419;-64
2022/06/26 05:22:45;;;;;;;2.20;2.10;;;;;;;23.09;51.21;101220.00;5076245;28;20470;-64
2022/06/26 05:25:11;;;;;;;2.50;2.30;;;;;;;23.11;51.28;101220.56;5075855;28;20475;-65
2022/06/26 05:27:36;;;;;;;2.45;2.25;;;;;;;23.10;50.79;101218.94;5063752;28;20412;-64
2022/06/26 05:30:03;;;;;;;2.33;2.20;;;;;;;23.10;50.96;101227.13;5055359;28;20025;-64
2022/06/26 05:32:29;;;;;;;2.70;2.50;;;;;;;23.10;51.15;101216.22;5056548;28;20033;-65
2022/06/26 05:34:54;;;;;;;2.28;2.17;;;;;;;23.12;51.23;101219.50;5055723;28;20067;-64
2022/06/26 05:37:20;;;;;;;2.22;2.13;;;;;;;23.10;51.26;101213.50;5055639;28;20079;-65
2022/06/26 05:39:45;;;;;;;2.58;2.38;;;;;;;23.10;51.07;101221.69;5055850;28;20036;-65
2022/06/26 05:42:10;;;;;;;2.60;2.40;;;;;;;23.14;51.34;101228.25;5055975;28;20487;-65
2022/06/26 05:44:36;;;;;;;2.60;2.40;;;;;;;23.13;51.35;101221.16;5054798;28;20478;-65
2022/06/26 05:47:02;;;;;;;2.40;2.22;;;;;;;23.14;51.57;101226.34;5055655;28;20416;-65
2022/06/26 05:49:28;;;;;;;2.40;2.30;;;;;;;23.15;51.42;101221.75;5055926;28;20108;-65
2022/06/26 05:51:53;;;;;;;2.50;2.25;;;;;;;23.12;51.42;101217.59;5055993;28;20025;-65
2022/06/26 05:54:19;;;;;;;2.58;2.38;;;;;;;23.14;51.10;101217.34;5055869;28;20479;-66
2022/06/26 05:56:45;;;;;;;1.90;1.80;;;;;;;23.12;51.24;101208.59;5055983;28;20395;-66
2022/06/26 05:59:10;;;;;;;2.50;2.30;;;;;;;23.11;51.01;101212.41;5055556;28;20487;-66
2022/06/26 06:01:36;;;;;;;2.20;2.10;;;;;;;23.15;50.55;101210.84;5056343;28;20021;-65
2022/06/26 06:04:02;;;;;;;2.10;2.00;;;;;;;23.14;50.68;101218.16;5055722;28;20072;-65
2022/06/26 06:06:28;;;;;;;2.08;1.98;;;;;;;23.14;50.62;101214.63;5055875;28;20048;-65
2022/06/26 06:08:53;;;;;;;2.30;2.10;;;;;;;23.16;50.74;101209.75;5054352;28;20519;-65
2022/06/26 06:11:19;;;;;;;2.08;1.90;;;;;;;23.15;50.45;101219.03;5055425;28;20451;-65
2022/06/26 06:13:44;;;;;;;2.30;2.10;;;;;;;23.16;50.37;101217.94;5055545;28;20025;-65
2022/06/26 06:16:10;;;;;;;2.35;2.15;;;;;;;23.14;50.31;101214.63;5055183;28;20028;-65
2022/06/26 06:18:35;;;;;;;1.95;1.85;;;;;;;23.13;50.17;101218.41;5055247;28;20025;-65
2022/06/26 06:21:01;;;;;;;1.95;1.85;;;;;;;23.16;49.89;101215.19;5055137;28;20418;-65
2022/06/26 06:23:26;;;;;;;1.98;1.88;;;;;;;23.18;49.73;101219.34;5054810;28;20460;-65
2022/06/26 06:25:51;;;;;;;2.25;2.05;;;;;;;23.17;50.01;101214.13;5054866;28;20024;-65
2022/06/26 06:28:18;;;;;;;2.10;1.90;;;;;;;23.18;49.84;101219.34;5070859;28;20024;-65
2022/06/26 06:30:44;;;;;;;2.00;1.90;;;;;;;23.19;49.52;101209.25;5075305;28;20036;-65
2022/06/26 06:33:09;;;;;;;1.80;1.70;;;;;;;23.20;49.71;101214.44;5073995;28;20493;-66
2022/06/26 06:35:36;;;;;;;2.40;2.20;;;;;;;23.19;49.53;101218.25;5075636;28;20025;-66
2022/06/26 06:38:02;;;;;;;2.05;1.92;;;;;;;23.20;49.70;101216.38;5075406;28;20051;-65
2022/06/26 06:40:27;;;;;;;2.10;2.00;;;;;;;23.19;49.54;101214.69;5075335;28;20032;-65
2022/06/26 06:42:53;;;;;;;2.50;2.03;;;;;;;23.21;49.72;101218.00;5074643;28;20036;-66
2022/06/26 06:45:18;;;;;;;2.20;2.10;;;;;;;23.21;49.61;101212.53;5075264;28;20025;-66
2022/06/26 06:47:44;;;;;;;2.40;2.20;;;;;;;23.22;49.59;101219.66;5075536;28;20078;-65
2022/06/26 06:50:09;;;;;;;1.85;1.75;;;;;;;23.21;49.47;101223.44;5074992;28;20033;-65
2022/06/26 06:52:35;;;;;;;1.98;1.88;;;;;;;23.22;49.55;101211.47;5074711;28;20032;-65
2022/06/26 06:55:01;;;;;;;1.90;1.80;;;;;;;23.22;49.20;101225.94;5075487;28;20032;-65
2022/06/26 06:57:26;;;;;;;1.85;1.75;;;;;;;23.23;49.48;101221.28;5075237;28;20032;-65
2022/06/26 06:59:52;;;;;;;2.00;1.90;;;;;;;23.23;49.18;101218.56;5075585;28;20078;-65
2022/06/26 07:02:17;;;;;;;1.90;1.80;;;;;;;23.23;48.90;101224.00;5075132;28;20471;-65
2022/06/26 07:04:43;;;;;;;2.05;1.95;;;;;;;23.24;49.31;101226.50;5075983;28;20032;-65
2022/06/26 07:07:08;;;;;;;2.13;2.03;;;;;;;23.25;48.92;101224.63;5074836;28;20061;-65
2022/06/26 07:09:33;;;;;;;2.00;1.90;;;;;;;23.25;48.96;101224.63;5073716;28;20035;-65
2022/06/26 07:11:59;;;;;;;1.90;1.80;;;;;;;23.26;48.92;101231.69;5073784;28;20033;-65
2022/06/26 07:14:24;;;;;;;1.83;1.73;;;;;;;23.25;49.21;101230.06;5074084;28;20024;-65
2022/06/26 07:16:53;;;;;;;2.13;1.95;;;;;;;23.25;48.83;101230.06;5074071;28;20020;-65
2022/06/26 07:19:18;;;;;;;2.00;1.75;;;;;;;23.26;49.03;101228.97;5073652;28;20104;-65
2022/06/26 07:21:44;;;;;;;1.80;1.70;;;;;;;23.26;49.09;101231.69;5073630;28;20035;-65
2022/06/26 07:24:10;;;;;;;2.13;2.03;;;;;;;23.27;48.54;101227.91;5073560;28;20055;-65
2022/06/26 07:26:36;;;;;;;1.75;1.65;;;;;;;23.27;48.75;101237.97;5072212;28;20050;-65
2022/06/26 07:29:01;;;;;;;2.30;2.10;;;;;;;23.28;48.88;101243.19;5053339;28;20080;-65
2022/06/26 07:31:27;;;;;;;1.90;1.80;;;;;;;23.28;48.60;101240.44;5052594;28;20036;-65
2022/06/26 07:36:37;;;;;;;2.05;1.95;;;;;;;23.31;48.71;101248.13;5053594;28;20139;-66
2022/06/26 07:39:03;;;;;;;1.80;1.70;;;;;;;23.33;48.72;101247.88;5053737;28;20029;-66
2022/06/26 07:41:28;;;;;;;2.05;1.95;;;;;;;23.32;48.35;101243.50;5053390;28;20029;-66
2022/06/26 07:43:54;;;;;;;1.80;1.70;;;;;;;23.34;48.59;101247.63;5053579;28;20036;-66
2022/06/26 07:46:20;;;;;;;2.30;2.13;;;;;;;23.34;48.35;101246.81;5053487;28;20372;-66
2022/06/26 07:48:45;;;;;;;1.80;1.70;;;;;;;23.33;48.42;101250.59;5053099;28;20036;-65
2022/06/26 07:51:11;;;;;;;1.80;1.70;;;;;;;23.34;48.54;101247.63;5053502;28;20087;-65
2022/06/26 07:53:36;;;;;;;1.73;1.63;;;;;;;23.35;48.47;101252.03;5053271;28;20025;-65
2022/06/26 07:56:03;;;;;;;2.00;1.90;;;;;;;23.35;48.40;101254.75;5053436;28;20392;-65
2022/06/26 07:58:29;;;;;;;1.80;1.70;;;;;;;23.26;48.38;101248.06;5053940;28;20028;-65
2022/06/26 08:00:54;;;;;;;1.80;1.70;;;;;;;23.34;48.53;101244.91;5053407;28;20029;-65
2022/06/26 08:03:20;;;;;;;2.30;2.10;;;;;;;23.35;48.54;101254.75;5053450;28;20456;-65
2022/06/26 08:05:46;;;;;;;2.03;1.92;;;;;;;23.33;48.38;101251.44;5053313;28;20029;-65
2022/06/26 08:08:12;;;;;;;1.80;1.70;;;;;;;23.36;48.41;101253.66;5053324;28;20025;-65
2022/06/26 08:10:37;;;;;;;2.10;1.95;;;;;;;23.36;48.38;101242.75;5052999;28;20029;-65
2022/06/26 08:13:06;;;;;;;1.67;1.58;;;;;;;23.35;48.26;101246.56;5053261;28;20029;-65
2022/06/26 08:15:32;;;;;;;1.90;1.80;;;;;;;23.35;48.46;101246.56;5052961;28;20025;-65
2022/06/26 08:17:57;;;;;;;1.55;1.45;;;;;;;23.34;48.32;101250.34;5053158;28;20025;-65
2022/06/26 08:20:23;;;;;;;1.98;1.88;;;;;;;23.37;48.43;101249.88;5053156;28;20102;-65
2022/06/26 08:22:48;;;;;;;1.95;1.85;;;;;;;23.34;48.43;101247.63;5053165;28;20512;-65
2022/06/26 08:25:14;;;;;;;1.70;1.60;;;;;;;23.36;48.40;101236.47;5053056;28;20045;-66
2022/06/26 08:27:39;;;;;;;2.00;1.80;;;;;;;23.38;48.26;101246.03;5062407;28;20028;-65
2022/06/26 08:30:06;;;;;;;2.20;2.03;;;;;;;23.42;48.28;101240.91;5073060;28;20048;-66
2022/06/26 08:32:31;;;;;;;2.08;1.98;;;;;;;23.40;48.38;101241.19;5072218;28;20107;-65
2022/06/26 08:34:57;;;;;;;1.83;1.73;;;;;;;23.40;48.21;101230.28;5073097;28;20039;-65
2022/06/26 08:37:22;;;;;;;1.90;1.80;;;;;;;23.42;48.29;101239.03;5073096;28;20417;-65
2022/06/26 08:39:48;;;;;;;1.73;1.63;;;;;;;23.41;48.10;101231.91;5073046;28;20028;-66
2022/06/26 08:42:13;;;;;;;1.55;1.45;;;;;;;23.41;48.22;101229.19;5072760;28;20036;-66
2022/06/26 08:44:51;;;;;;;1.90;1.80;;;;;;;23.40;48.24;101227.53;5072613;28;20024;-65
2022/06/26 08:47:18;;;;;;;2.00;1.90;;;;;;;23.38;48.30;101224.22;5072191;28;20036;-65
2022/06/26 08:49:43;;;;;;;1.80;1.70;;;;;;;23.38;48.53;101232.41;5071380;28;20021;-65
2022/06/26 08:52:10;;;;;;;1.85;1.75;;;;;;;23.34;48.83;101227.72;5072525;28;20028;-65
2022/06/26 08:54:38;;;;;;;1.80;1.70;;;;;;;23.36;48.50;101231.03;5072564;28;20515;-65
2022/06/26 08:57:04;;;;;;;1.90;1.80;;;;;;;23.35;48.39;101230.22;5054618;28;20489;-66
2022/06/26 08:59:29;;;;;;;1.90;1.80;;;;;;;23.37;48.37;101233.50;5072339;28;20025;-65
2022/06/26 09:01:55;;;;;;;1.67;1.58;;;;;;;23.38;48.25;101235.13;5071272;28;20042;-65
2022/06/26 09:04:21;;;;;;;1.80;1.70;;;;;;;23.38;48.03;101235.13;5072486;28;20028;-65
2022/06/26 09:06:46;;;;;;;2.10;1.85;;;;;;;23.41;48.17;101231.91;5075543;28;20036;-65
2022/06/26 09:09:25;;;;;;;1.90;1.80;;;;;;;23.36;48.08;101240.03;5076384;28;20025;-65
2022/06/26 09:11:58;;;;;;;1.75;1.65;;;;;;;23.38;47.71;101235.13;5076495;28;20024;-66
2022/06/26 09:14:23;;;;;;;1.53;1.43;;;;;;;23.38;47.96;101234.31;5076143;28;20024;-66
2022/06/26 09:16:49;;;;;;;1.83;1.73;;;;;;;23.36;47.91;101237.28;5076316;28;20253;-66
2022/06/26 09:19:20;;;;;;;1.70;1.60;;;;;;;23.38;47.96;101234.31;5076378;28;20031;-65
2022/06/26 09:21:48;;;;;;;1.70;1.60;;;;;;;23.39;47.81;101239.53;5075929;28;20074;-65
2022/06/26 09:24:15;;;;;;;1.88;1.70;;;;;;;23.37;47.37;101238.94;5075133;28;20036;-65
2022/06/26 09:26:41;;;;;;;1.90;1.80;;;;;;;23.40;47.55;101222.09;5075397;28;20048;-65
2022/06/26 09:29:13;;;;;;;1.80;1.70;;;;;;;23.41;47.60;101226.44;5055872;28;20040;-66
2022/06/26 09:31:39;;;;;;;1.80;1.70;;;;;;;23.41;46.66;101229.19;5055853;28;20086;-66
2022/06/26 09:34:05;;;;;;;1.63;1.52;;;;;;;23.38;46.84;101221.50;5055799;28;20029;-66
2022/06/26 09:36:30;;;;;;;1.55;1.45;;;;;;;23.35;47.07;101229.34;5055752;28;20045;-65
2022/06/26 09:38:56;;;;;;;2.80;1.73;;;;;;;23.36;46.51;101231.84;5054405;28;20025;-65
2022/06/26 09:41:32;;;;;;;1.65;1.55;;;;;;;23.35;47.06;101226.63;5055614;28;20025;-65
2022/06/26 09:43:57;;;;;;;1.63;1.52;;;;;;;23.34;47.10;101225.81;5056123;28;20040;-65
2022/06/26 09:46:32;;;;;;;1.80;1.70;;;;;;;23.36;46.98;101218.19;5055877;28;20128;-65
2022/06/26 09:48:59;;;;;;;1.75;1.65;;;;;;;23.38;46.84;101218.75;5055672;28;20033;-65
2022/06/26 09:51:25;;;;;;;1.63;1.52;;;;;;;23.29;46.90;101217.56;5055431;28;20386;-65
2022/06/26 09:53:50;;;;;;;1.73;1.63;;;;;;;23.34;46.70;101217.63;5054157;28;20032;-65
2022/06/26 09:56:16;;;;;;;1.70;1.60;;;;;;;23.32;46.69;101217.06;5055724;28;20032;-65
2022/06/26 09:58:42;;;;;;;1.60;1.50;;;;;;;23.33;46.31;101215.97;5054411;28;20473;-65
2022/06/26 10:06:38;;;;;;;1.58;1.48;;;;;;;23.32;46.32;101214.34;5055248;28;20048;-65
2022/06/26 10:09:05;;;;;;;1.75;1.50;;;;;;;23.32;45.84;101214.34;5037778;28;20375;-64
2022/06/26 10:11:33;;;;;;;1.50;1.40;;;;;;;23.32;45.94;101214.34;5056108;28;20027;-65
2022/06/26 10:14:00;;;;;;;1.50;1.40;;;;;;;23.29;46.08;101206.66;5055288;28;20100;-66
2022/06/26 10:16:36;;;;;;;1.38;1.27;;;;;;;23.34;45.94;101209.44;5054894;28;20049;-65
2022/06/26 10:19:35;;;;;;;1.33;1.23;;;;;;;23.37;45.70;101205.38;5053650;28;20021;-65
2022/06/26 10:22:01;;;;;;;1.70;1.40;;;;;;;23.31;45.23;101209.13;5055635;28;20048;-65
2022/06/26 10:24:26;;;;;;;1.52;1.42;;;;;;;23.36;45.16;101210.00;5036938;28;20491;-65
2022/06/26 10:27:02;;;;;;;1.67;1.50;;;;;;;23.35;45.37;101202.09;5056161;28;20032;-65
2022/06/26 10:29:40;;;;;;;1.80;1.70;;;;;;;23.33;45.33;101199.59;5074940;28;20029;-65
2022/06/26 10:32:09;;;;;;;1.70;1.60;;;;;;;23.38;45.01;101201.59;5074962;28;20025;-65
2022/06/26 10:34:34;;;;;;;1.45;1.35;;;;;;;23.38;44.83;101207.84;5074647;28;20378;-65
2022/06/26 10:37:07;;;;;;;1.58;1.48;;;;;;;23.37;44.71;101203.50;5074871;28;20025;-65
2022/06/26 10:39:38;;;;;;;1.50;1.40;;;;;;;23.39;44.74;101208.69;5074452;28;20142;-65
2022/06/26 10:45:11;;;;;;;1.73;1.60;;;;;;;23.38;44.38;101198.84;5074500;28;20174;-65
2022/06/26 10:47:50;;;;;;;1.48;1.38;;;;;;;23.39;44.65;101204.06;5074318;28;20059;-65
2022/06/26 10:50:23;;;;;;;1.50;1.40;;;;;;;23.41;44.41;101196.44;5074309;28;20025;-66
2022/06/26 10:52:48;;;;;;;1.60;1.50;;;;;;;23.47;44.08;101188.31;5073276;28;20046;-65
2022/06/26 10:55:14;;;;;;;1.50;1.40;;;;;;;23.43;44.28;101183.38;5074481;28;20187;-65
2022/06/26 10:57:39;;;;;;;1.50;1.40;;;;;;;23.42;44.39;101187.19;5074145;28;20025;-65
2022/06/26 11:00:11;;;;;;;1.60;1.50;;;;;;;23.40;44.10;101186.63;5074024;28;20039;-65
2022/06/26 11:02:38;;;;;;;1.60;1.50;;;;;;;23.36;44.32;101190.91;5074373;28;20028;-65
2022/06/26 11:05:04;;;;;;;1.40;1.30;;;;;;;23.42;43.97;101187.19;5073213;28;20024;-65
2022/06/26 11:07:49;;;;;;;1.40;1.30;;;;;;;23.40;43.88;101193.97;5073881;28;20463;-65
2022/06/26 11:10:15;;;;;;;1.40;1.30;;;;;;;23.40;43.84;101183.91;5073764;28;20492;-65
2022/06/26 11:12:46;;;;;;;1.27;1.27;;;;;;;23.41;44.03;101180.06;5074183;28;20536;-65
2022/06/26 11:15:21;;;;;;;1.58;1.48;;;;;;;23.40;43.83;101173.00;5074170;28;20075;-65
2022/06/26 11:18:00;;;;;;;1.50;1.40;;;;;;;23.38;43.78;101172.41;5074102;28;20052;-65
2022/06/26 11:23:19;;;;;;;1.40;1.30;;;;;;;23.38;43.70;101174.31;5074082;28;20436;-65
2022/06/26 11:25:45;;;;;;;1.30;1.20;;;;;;;23.41;43.64;101174.63;5073484;28;20076;-65
2022/06/26 11:28:12;;;;;;;1.50;1.40;;;;;;;23.38;43.84;101175.13;5062177;28;20021;-65
2022/06/26 11:30:41;;;;;;;1.42;1.33;;;;;;;23.42;43.52;101175.44;5053977;28;20443;-66
2022/06/26 11:33:07;;;;;;;1.40;1.30;;;;;;;23.44;43.70;101178.75;5053801;28;20400;-66
2022/06/26 11:35:34;;;;;;;1.60;1.50;;;;;;;23.42;43.69;101168.09;5053549;28;20059;-65
2022/06/26 11:38:07;;;;;;;1.50;1.40;;;;;;;23.42;43.65;101159.91;5053740;28;20100;-65
2022/06/26 11:40:33;;;;;;;1.60;1.48;;;;;;;23.42;43.80;101170.81;5053496;28;20049;-66
2022/06/26 11:42:58;;;;;;;1.58;1.48;;;;;;;23.45;43.54;101169.47;5035748;28;20078;-65